sensor_id;sensor_type;location;lat;lon;timestamp;P1;durP1;ratioP1;P2;durP2;ratioP2
11709;SDS011;5911;51.036;6.972;2022-11-11T00:00:30;9.97;;;6.50;;
11709;SDS011;5911;51.036;6.972;2022-11-11T00:03:17;10.47;;;6.27;;
11709;SDS011;5911;51.036;6.972;2022-11-11T00:06:09;9.47;;;6.73;;
11709;SDS011;5911;51.036;6.972;2022-11-11T00:08:57;7.63;;;6.33;;
11709;SDS011;5911;51.036;6.972;2022-11-11T00:11:43;11.13;;;7.03;;
11709;SDS011;5911;51.036;6.972;2022-11-11T00:14:31;9.87;;;6.77;;
11709;SDS011;5911;51.036;6.972;2022-11-11T00:17:17;8.70;;;6.50;;
11709;SDS011;5911;51.036;6.972;2022-11-11T00:20:21;10.47;;;6.23;;
11709;SDS011;5911;51.036;6.972;2022-11-11T00:23:28;9.37;;;6.83;;
11709;SDS011;5911;51.036;6.972;2022-11-11T00:26:31;10.53;;;7.37;;
11709;SDS011;5911;51.036;6.972;2022-11-11T00:29:23;11.43;;;7.23;;
11709;SDS011;5911;51.036;6.972;2022-11-11T00:32:12;11.03;;;7.47;;
11709;SDS011;5911;51.036;6.972;2022-11-11T00:35:12;12.03;;;7.40;;
11709;SDS011;5911;51.036;6.972;2022-11-11T00:38:16;11.50;;;6.87;;
11709;SDS011;5911;51.036;6.972;2022-11-11T00:41:17;16.17;;;7.83;;
11709;SDS011;5911;51.036;6.972;2022-11-11T00:44:05;10.20;;;7.40;;
11709;SDS011;5911;51.036;6.972;2022-11-11T00:46:52;10.43;;;7.20;;
11709;SDS011;5911;51.036;6.972;2022-11-11T00:49:57;12.33;;;7.10;;
11709;SDS011;5911;51.036;6.972;2022-11-11T00:52:57;10.40;;;6.67;;
11709;SDS011;5911;51.036;6.972;2022-11-11T00:55:44;11.60;;;6.67;;
11709;SDS011;5911;51.036;6.972;2022-11-11T00:58:30;8.03;;;6.07;;
11709;SDS011;5911;51.036;6.972;2022-11-11T01:01:17;8.60;;;5.73;;
11709;SDS011;5911;51.036;6.972;2022-11-11T01:04:03;9.47;;;5.87;;
11709;SDS011;5911;51.036;6.972;2022-11-11T01:06:51;10.23;;;6.03;;
11709;SDS011;5911;51.036;6.972;2022-11-11T01:09:38;12.10;;;6.97;;
11709;SDS011;5911;51.036;6.972;2022-11-11T01:12:24;9.13;;;6.00;;
11709;SDS011;5911;51.036;6.972;2022-11-11T01:15:11;10.50;;;7.57;;
11709;SDS011;5911;51.036;6.972;2022-11-11T01:17:57;11.03;;;6.80;;
11709;SDS011;5911;51.036;6.972;2022-11-11T01:20:43;11.53;;;6.77;;
11709;SDS011;5911;51.036;6.972;2022-11-11T01:23:33;9.90;;;6.50;;
11709;SDS011;5911;51.036;6.972;2022-11-11T01:26:22;9.83;;;6.33;;
11709;SDS011;5911;51.036;6.972;2022-11-11T01:29:14;6.57;;;5.73;;
11709;SDS011;5911;51.036;6.972;2022-11-11T01:32:01;9.53;;;6.23;;
11709;SDS011;5911;51.036;6.972;2022-11-11T01:34:47;12.07;;;6.63;;
11709;SDS011;5911;51.036;6.972;2022-11-11T01:37:33;13.33;;;7.03;;
11709;SDS011;5911;51.036;6.972;2022-11-11T01:40:21;11.90;;;6.63;;
11709;SDS011;5911;51.036;6.972;2022-11-11T01:43:14;11.07;;;6.47;;
11709;SDS011;5911;51.036;6.972;2022-11-11T01:46:13;10.40;;;6.63;;
11709;SDS011;5911;51.036;6.972;2022-11-11T01:49:15;14.40;;;6.97;;
11709;SDS011;5911;51.036;6.972;2022-11-11T01:52:10;9.63;;;6.73;;
11709;SDS011;5911;51.036;6.972;2022-11-11T01:55:00;13.07;;;7.63;;
11709;SDS011;5911;51.036;6.972;2022-11-11T01:57:52;9.40;;;5.73;;
11709;SDS011;5911;51.036;6.972;2022-11-11T02:00:42;8.10;;;6.43;;
11709;SDS011;5911;51.036;6.972;2022-11-11T02:03:29;10.17;;;6.50;;
11709;SDS011;5911;51.036;6.972;2022-11-11T02:06:20;10.47;;;6.53;;
11709;SDS011;5911;51.036;6.972;2022-11-11T02:09:06;11.10;;;7.10;;
11709;SDS011;5911;51.036;6.972;2022-11-11T02:11:54;12.13;;;6.33;;
11709;SDS011;5911;51.036;6.972;2022-11-11T02:15:02;9.93;;;6.37;;
11709;SDS011;5911;51.036;6.972;2022-11-11T02:17:50;12.17;;;6.70;;
11709;SDS011;5911;51.036;6.972;2022-11-11T02:20:38;11.23;;;6.83;;
11709;SDS011;5911;51.036;6.972;2022-11-11T02:23:29;8.93;;;5.93;;
11709;SDS011;5911;51.036;6.972;2022-11-11T02:26:21;8.53;;;5.70;;
11709;SDS011;5911;51.036;6.972;2022-11-11T02:29:10;11.17;;;6.43;;
11709;SDS011;5911;51.036;6.972;2022-11-11T02:32:01;10.03;;;6.63;;
11709;SDS011;5911;51.036;6.972;2022-11-11T02:34:47;10.30;;;6.67;;
11709;SDS011;5911;51.036;6.972;2022-11-11T02:37:34;10.97;;;7.17;;
11709;SDS011;5911;51.036;6.972;2022-11-11T02:40:22;9.57;;;6.10;;
11709;SDS011;5911;51.036;6.972;2022-11-11T02:43:13;12.10;;;6.40;;
11709;SDS011;5911;51.036;6.972;2022-11-11T02:45:58;11.23;;;6.57;;
11709;SDS011;5911;51.036;6.972;2022-11-11T02:48:46;10.63;;;6.87;;
11709;SDS011;5911;51.036;6.972;2022-11-11T02:51:32;12.37;;;7.27;;
11709;SDS011;5911;51.036;6.972;2022-11-11T02:54:19;10.83;;;6.57;;
11709;SDS011;5911;51.036;6.972;2022-11-11T02:57:06;13.20;;;7.17;;
11709;SDS011;5911;51.036;6.972;2022-11-11T02:59:54;12.17;;;6.87;;
11709;SDS011;5911;51.036;6.972;2022-11-11T03:02:43;14.30;;;7.10;;
11709;SDS011;5911;51.036;6.972;2022-11-11T03:05:30;10.67;;;6.23;;
11709;SDS011;5911;51.036;6.972;2022-11-11T03:08:17;11.70;;;7.07;;
11709;SDS011;5911;51.036;6.972;2022-11-11T03:11:03;11.03;;;7.10;;
11709;SDS011;5911;51.036;6.972;2022-11-11T03:13:56;12.70;;;6.77;;
11709;SDS011;5911;51.036;6.972;2022-11-11T03:16:45;9.47;;;6.40;;
11709;SDS011;5911;51.036;6.972;2022-11-11T03:19:48;13.70;;;7.47;;
11709;SDS011;5911;51.036;6.972;2022-11-11T03:22:35;9.53;;;6.33;;
11709;SDS011;5911;51.036;6.972;2022-11-11T03:25:39;11.50;;;7.00;;
11709;SDS011;5911;51.036;6.972;2022-11-11T03:28:28;9.20;;;6.80;;
11709;SDS011;5911;51.036;6.972;2022-11-11T03:31:14;10.03;;;5.90;;
11709;SDS011;5911;51.036;6.972;2022-11-11T03:34:02;10.17;;;6.47;;
11709;SDS011;5911;51.036;6.972;2022-11-11T03:36:55;11.63;;;7.33;;
11709;SDS011;5911;51.036;6.972;2022-11-11T03:39:59;11.93;;;7.20;;
11709;SDS011;5911;51.036;6.972;2022-11-11T03:42:45;12.07;;;8.77;;
11709;SDS011;5911;51.036;6.972;2022-11-11T03:45:31;12.90;;;8.33;;
11709;SDS011;5911;51.036;6.972;2022-11-11T03:48:17;10.47;;;8.10;;
11709;SDS011;5911;51.036;6.972;2022-11-11T03:51:04;12.03;;;7.57;;
11709;SDS011;5911;51.036;6.972;2022-11-11T03:53:52;11.10;;;7.60;;
11709;SDS011;5911;51.036;6.972;2022-11-11T03:56:39;10.93;;;7.30;;
11709;SDS011;5911;51.036;6.972;2022-11-11T03:59:25;11.40;;;6.67;;
11709;SDS011;5911;51.036;6.972;2022-11-11T04:02:11;11.30;;;6.90;;
11709;SDS011;5911;51.036;6.972;2022-11-11T04:05:16;9.63;;;7.03;;
11709;SDS011;5911;51.036;6.972;2022-11-11T04:08:20;10.50;;;6.50;;
11709;SDS011;5911;51.036;6.972;2022-11-11T04:11:26;11.03;;;6.60;;
11709;SDS011;5911;51.036;6.972;2022-11-11T04:14:14;12.07;;;6.47;;
11709;SDS011;5911;51.036;6.972;2022-11-11T04:17:18;10.20;;;6.57;;
11709;SDS011;5911;51.036;6.972;2022-11-11T04:20:04;12.93;;;6.93;;
11709;SDS011;5911;51.036;6.972;2022-11-11T04:23:09;9.97;;;6.47;;
11709;SDS011;5911;51.036;6.972;2022-11-11T04:25:58;9.70;;;6.60;;
11709;SDS011;5911;51.036;6.972;2022-11-11T04:28:46;12.17;;;6.93;;
11709;SDS011;5911;51.036;6.972;2022-11-11T04:31:51;9.97;;;6.13;;
11709;SDS011;5911;51.036;6.972;2022-11-11T04:34:55;11.47;;;6.23;;
11709;SDS011;5911;51.036;6.972;2022-11-11T04:37:46;8.53;;;6.23;;
11709;SDS011;5911;51.036;6.972;2022-11-11T04:40:34;10.67;;;6.67;;
11709;SDS011;5911;51.036;6.972;2022-11-11T04:43:38;9.13;;;6.93;;
11709;SDS011;5911;51.036;6.972;2022-11-11T04:46:40;12.63;;;7.40;;
11709;SDS011;5911;51.036;6.972;2022-11-11T04:49:26;9.13;;;6.17;;
11709;SDS011;5911;51.036;6.972;2022-11-11T04:52:12;12.70;;;6.70;;
11709;SDS011;5911;51.036;6.972;2022-11-11T04:55:13;11.00;;;6.80;;
11709;SDS011;5911;51.036;6.972;2022-11-11T04:58:18;8.60;;;6.13;;
11709;SDS011;5911;51.036;6.972;2022-11-11T05:01:06;9.23;;;6.77;;
11709;SDS011;5911;51.036;6.972;2022-11-11T05:03:53;11.47;;;7.93;;
11709;SDS011;5911;51.036;6.972;2022-11-11T05:06:38;12.57;;;8.00;;
11709;SDS011;5911;51.036;6.972;2022-11-11T05:09:43;11.27;;;8.20;;
11709;SDS011;5911;51.036;6.972;2022-11-11T05:12:29;9.57;;;8.03;;
11709;SDS011;5911;51.036;6.972;2022-11-11T05:15:16;10.87;;;8.17;;
11709;SDS011;5911;51.036;6.972;2022-11-11T05:18:20;8.87;;;7.10;;
11709;SDS011;5911;51.036;6.972;2022-11-11T05:21:25;10.10;;;7.37;;
11709;SDS011;5911;51.036;6.972;2022-11-11T05:24:14;13.33;;;7.60;;
11709;SDS011;5911;51.036;6.972;2022-11-11T05:27:27;11.97;;;7.70;;
11709;SDS011;5911;51.036;6.972;2022-11-11T05:30:14;13.67;;;7.77;;
11709;SDS011;5911;51.036;6.972;2022-11-11T05:33:01;11.80;;;8.07;;
11709;SDS011;5911;51.036;6.972;2022-11-11T05:35:47;11.60;;;8.37;;
11709;SDS011;5911;51.036;6.972;2022-11-11T05:38:35;12.33;;;7.50;;
11709;SDS011;5911;51.036;6.972;2022-11-11T05:41:21;9.70;;;7.37;;
11709;SDS011;5911;51.036;6.972;2022-11-11T05:44:07;12.10;;;7.50;;
11709;SDS011;5911;51.036;6.972;2022-11-11T05:46:53;9.90;;;6.53;;
11709;SDS011;5911;51.036;6.972;2022-11-11T05:49:39;14.87;;;7.47;;
11709;SDS011;5911;51.036;6.972;2022-11-11T05:52:26;13.97;;;6.90;;
11709;SDS011;5911;51.036;6.972;2022-11-11T05:55:13;10.33;;;6.87;;
11709;SDS011;5911;51.036;6.972;2022-11-11T05:57:59;8.70;;;6.47;;
11709;SDS011;5911;51.036;6.972;2022-11-11T06:00:45;9.73;;;6.77;;
11709;SDS011;5911;51.036;6.972;2022-11-11T06:03:32;8.70;;;5.93;;
11709;SDS011;5911;51.036;6.972;2022-11-11T06:06:18;10.70;;;6.43;;
11709;SDS011;5911;51.036;6.972;2022-11-11T06:09:04;10.13;;;6.57;;
11709;SDS011;5911;51.036;6.972;2022-11-11T06:11:52;9.10;;;7.13;;
11709;SDS011;5911;51.036;6.972;2022-11-11T06:14:39;10.37;;;6.50;;
11709;SDS011;5911;51.036;6.972;2022-11-11T06:17:25;11.40;;;7.03;;
11709;SDS011;5911;51.036;6.972;2022-11-11T06:20:11;10.07;;;7.60;;
11709;SDS011;5911;51.036;6.972;2022-11-11T06:22:57;9.83;;;8.50;;
11709;SDS011;5911;51.036;6.972;2022-11-11T06:25:43;11.17;;;8.00;;
11709;SDS011;5911;51.036;6.972;2022-11-11T06:28:57;11.33;;;7.30;;
11709;SDS011;5911;51.036;6.972;2022-11-11T06:31:43;10.73;;;6.60;;
11709;SDS011;5911;51.036;6.972;2022-11-11T06:34:30;12.70;;;8.80;;
11709;SDS011;5911;51.036;6.972;2022-11-11T06:37:16;13.80;;;9.70;;
11709;SDS011;5911;51.036;6.972;2022-11-11T06:40:03;13.23;;;8.50;;
11709;SDS011;5911;51.036;6.972;2022-11-11T06:42:50;11.70;;;8.67;;
11709;SDS011;5911;51.036;6.972;2022-11-11T06:45:37;10.20;;;7.53;;
11709;SDS011;5911;51.036;6.972;2022-11-11T06:48:24;11.00;;;8.80;;
11709;SDS011;5911;51.036;6.972;2022-11-11T06:51:11;9.47;;;7.57;;
11709;SDS011;5911;51.036;6.972;2022-11-11T06:53:58;14.23;;;8.43;;
11709;SDS011;5911;51.036;6.972;2022-11-11T06:56:46;10.10;;;7.63;;
11709;SDS011;5911;51.036;6.972;2022-11-11T06:59:32;10.57;;;7.63;;
11709;SDS011;5911;51.036;6.972;2022-11-11T07:02:20;12.17;;;7.03;;
11709;SDS011;5911;51.036;6.972;2022-11-11T07:05:06;10.10;;;7.23;;
11709;SDS011;5911;51.036;6.972;2022-11-11T07:07:53;10.87;;;7.90;;
11709;SDS011;5911;51.036;6.972;2022-11-11T07:10:42;9.97;;;7.90;;
11709;SDS011;5911;51.036;6.972;2022-11-11T07:13:29;11.13;;;7.33;;
11709;SDS011;5911;51.036;6.972;2022-11-11T07:16:15;10.63;;;7.13;;
11709;SDS011;5911;51.036;6.972;2022-11-11T07:19:02;8.33;;;6.97;;
11709;SDS011;5911;51.036;6.972;2022-11-11T07:21:48;13.27;;;7.47;;
11709;SDS011;5911;51.036;6.972;2022-11-11T07:24:34;12.50;;;6.93;;
11709;SDS011;5911;51.036;6.972;2022-11-11T07:27:20;11.80;;;7.90;;
11709;SDS011;5911;51.036;6.972;2022-11-11T07:30:07;16.90;;;8.60;;
11709;SDS011;5911;51.036;6.972;2022-11-11T07:32:55;14.80;;;9.43;;
11709;SDS011;5911;51.036;6.972;2022-11-11T07:35:42;15.70;;;8.27;;
11709;SDS011;5911;51.036;6.972;2022-11-11T07:38:29;13.33;;;7.30;;
11709;SDS011;5911;51.036;6.972;2022-11-11T07:41:15;12.53;;;7.40;;
11709;SDS011;5911;51.036;6.972;2022-11-11T07:44:01;12.50;;;7.27;;
11709;SDS011;5911;51.036;6.972;2022-11-11T07:46:47;11.83;;;7.70;;
11709;SDS011;5911;51.036;6.972;2022-11-11T07:49:33;13.10;;;7.43;;
11709;SDS011;5911;51.036;6.972;2022-11-11T07:52:21;12.50;;;7.47;;
11709;SDS011;5911;51.036;6.972;2022-11-11T07:55:07;13.00;;;7.03;;
11709;SDS011;5911;51.036;6.972;2022-11-11T07:57:54;11.33;;;7.80;;
11709;SDS011;5911;51.036;6.972;2022-11-11T08:00:40;11.93;;;7.20;;
11709;SDS011;5911;51.036;6.972;2022-11-11T08:03:26;10.97;;;6.90;;
11709;SDS011;5911;51.036;6.972;2022-11-11T08:06:12;10.83;;;7.60;;
11709;SDS011;5911;51.036;6.972;2022-11-11T08:09:00;14.20;;;7.20;;
11709;SDS011;5911;51.036;6.972;2022-11-11T08:11:46;10.93;;;7.60;;
11709;SDS011;5911;51.036;6.972;2022-11-11T08:14:49;12.10;;;7.33;;
11709;SDS011;5911;51.036;6.972;2022-11-11T08:17:36;12.00;;;8.10;;
11709;SDS011;5911;51.036;6.972;2022-11-11T08:20:24;12.10;;;7.63;;
11709;SDS011;5911;51.036;6.972;2022-11-11T08:23:11;10.63;;;7.27;;
11709;SDS011;5911;51.036;6.972;2022-11-11T08:26:20;11.97;;;7.97;;
11709;SDS011;5911;51.036;6.972;2022-11-11T08:29:13;11.10;;;8.00;;
11709;SDS011;5911;51.036;6.972;2022-11-11T08:31:59;11.77;;;8.33;;
11709;SDS011;5911;51.036;6.972;2022-11-11T08:34:45;11.00;;;8.50;;
11709;SDS011;5911;51.036;6.972;2022-11-11T08:37:31;12.20;;;8.37;;
11709;SDS011;5911;51.036;6.972;2022-11-11T08:40:17;11.57;;;7.87;;
11709;SDS011;5911;51.036;6.972;2022-11-11T08:43:05;13.80;;;8.60;;
11709;SDS011;5911;51.036;6.972;2022-11-11T08:45:51;15.37;;;9.30;;
11709;SDS011;5911;51.036;6.972;2022-11-11T08:48:37;13.90;;;8.27;;
11709;SDS011;5911;51.036;6.972;2022-11-11T08:51:24;13.80;;;8.80;;
11709;SDS011;5911;51.036;6.972;2022-11-11T08:54:10;12.17;;;7.70;;
11709;SDS011;5911;51.036;6.972;2022-11-11T08:56:57;11.70;;;7.97;;
11709;SDS011;5911;51.036;6.972;2022-11-11T08:59:44;11.63;;;8.37;;
11709;SDS011;5911;51.036;6.972;2022-11-11T09:02:30;13.33;;;8.30;;
11709;SDS011;5911;51.036;6.972;2022-11-11T09:05:16;10.17;;;7.77;;
11709;SDS011;5911;51.036;6.972;2022-11-11T09:08:04;9.40;;;6.63;;
11709;SDS011;5911;51.036;6.972;2022-11-11T09:10:51;10.90;;;7.63;;
11709;SDS011;5911;51.036;6.972;2022-11-11T09:13:37;11.67;;;7.80;;
11709;SDS011;5911;51.036;6.972;2022-11-11T09:16:25;10.40;;;8.10;;
11709;SDS011;5911;51.036;6.972;2022-11-11T09:19:11;14.27;;;8.40;;
11709;SDS011;5911;51.036;6.972;2022-11-11T09:21:57;13.87;;;8.77;;
11709;SDS011;5911;51.036;6.972;2022-11-11T09:24:43;12.17;;;9.40;;
11709;SDS011;5911;51.036;6.972;2022-11-11T09:27:30;13.67;;;8.40;;
11709;SDS011;5911;51.036;6.972;2022-11-11T09:30:16;17.67;;;10.07;;
11709;SDS011;5911;51.036;6.972;2022-11-11T09:33:04;13.03;;;7.97;;
11709;SDS011;5911;51.036;6.972;2022-11-11T09:35:50;14.57;;;7.77;;
11709;SDS011;5911;51.036;6.972;2022-11-11T09:38:36;11.07;;;8.17;;
11709;SDS011;5911;51.036;6.972;2022-11-11T09:41:23;12.97;;;8.03;;
11709;SDS011;5911;51.036;6.972;2022-11-11T09:44:27;12.23;;;7.60;;
11709;SDS011;5911;51.036;6.972;2022-11-11T09:47:27;12.40;;;7.67;;
11709;SDS011;5911;51.036;6.972;2022-11-11T09:50:22;11.93;;;8.10;;
11709;SDS011;5911;51.036;6.972;2022-11-11T09:53:10;13.47;;;7.93;;
11709;SDS011;5911;51.036;6.972;2022-11-11T09:56:05;13.30;;;10.80;;
11709;SDS011;5911;51.036;6.972;2022-11-11T09:59:15;12.80;;;10.50;;
11709;SDS011;5911;51.036;6.972;2022-11-11T10:02:07;11.97;;;8.60;;
11709;SDS011;5911;51.036;6.972;2022-11-11T10:04:59;12.33;;;7.90;;
11709;SDS011;5911;51.036;6.972;2022-11-11T10:07:52;10.20;;;7.00;;
11709;SDS011;5911;51.036;6.972;2022-11-11T10:10:44;10.80;;;7.97;;
11709;SDS011;5911;51.036;6.972;2022-11-11T10:13:32;11.40;;;8.20;;
11709;SDS011;5911;51.036;6.972;2022-11-11T10:16:21;10.40;;;7.20;;
11709;SDS011;5911;51.036;6.972;2022-11-11T10:19:19;11.80;;;7.37;;
11709;SDS011;5911;51.036;6.972;2022-11-11T10:22:18;10.33;;;7.33;;
11709;SDS011;5911;51.036;6.972;2022-11-11T10:25:15;10.07;;;7.20;;
11709;SDS011;5911;51.036;6.972;2022-11-11T10:28:07;7.83;;;6.90;;
11709;SDS011;5911;51.036;6.972;2022-11-11T10:30:58;10.20;;;6.63;;
11709;SDS011;5911;51.036;6.972;2022-11-11T10:33:48;10.60;;;6.67;;
11709;SDS011;5911;51.036;6.972;2022-11-11T10:36:41;9.87;;;7.23;;
11709;SDS011;5911;51.036;6.972;2022-11-11T10:39:35;9.77;;;6.63;;
11709;SDS011;5911;51.036;6.972;2022-11-11T10:42:35;7.07;;;6.10;;
11709;SDS011;5911;51.036;6.972;2022-11-11T10:45:28;8.67;;;6.30;;
11709;SDS011;5911;51.036;6.972;2022-11-11T10:48:25;9.77;;;5.73;;
11709;SDS011;5911;51.036;6.972;2022-11-11T10:51:29;6.43;;;5.03;;
11709;SDS011;5911;51.036;6.972;2022-11-11T10:54:18;7.90;;;5.87;;
11709;SDS011;5911;51.036;6.972;2022-11-11T10:57:09;9.70;;;6.03;;
11709;SDS011;5911;51.036;6.972;2022-11-11T11:00:02;8.10;;;4.60;;
11709;SDS011;5911;51.036;6.972;2022-11-11T11:02:52;6.80;;;4.00;;
11709;SDS011;5911;51.036;6.972;2022-11-11T11:05:44;7.27;;;4.30;;
11709;SDS011;5911;51.036;6.972;2022-11-11T11:08:34;7.17;;;4.20;;
11709;SDS011;5911;51.036;6.972;2022-11-11T11:11:28;5.80;;;3.77;;
11709;SDS011;5911;51.036;6.972;2022-11-11T11:14:27;6.30;;;3.80;;
11709;SDS011;5911;51.036;6.972;2022-11-11T11:17:19;6.57;;;3.90;;
11709;SDS011;5911;51.036;6.972;2022-11-11T11:20:11;6.50;;;3.60;;
11709;SDS011;5911;51.036;6.972;2022-11-11T11:22:59;7.90;;;4.00;;
11709;SDS011;5911;51.036;6.972;2022-11-11T11:25:51;4.97;;;3.33;;
11709;SDS011;5911;51.036;6.972;2022-11-11T11:28:51;5.37;;;3.53;;
11709;SDS011;5911;51.036;6.972;2022-11-11T11:31:39;5.33;;;3.33;;
11709;SDS011;5911;51.036;6.972;2022-11-11T11:34:41;7.40;;;3.60;;
11709;SDS011;5911;51.036;6.972;2022-11-11T11:37:29;6.27;;;3.07;;
11709;SDS011;5911;51.036;6.972;2022-11-11T11:40:15;3.97;;;3.37;;
11709;SDS011;5911;51.036;6.972;2022-11-11T11:43:02;5.80;;;3.30;;
11709;SDS011;5911;51.036;6.972;2022-11-11T11:46:18;4.63;;;3.13;;
11709;SDS011;5911;51.036;6.972;2022-11-11T11:49:13;5.37;;;2.90;;
11709;SDS011;5911;51.036;6.972;2022-11-11T11:52:11;6.43;;;3.77;;
11709;SDS011;5911;51.036;6.972;2022-11-11T11:55:06;5.90;;;3.73;;
11709;SDS011;5911;51.036;6.972;2022-11-11T11:58:14;5.77;;;3.03;;
11709;SDS011;5911;51.036;6.972;2022-11-11T12:01:10;4.07;;;2.73;;
11709;SDS011;5911;51.036;6.972;2022-11-11T12:07:37;5.97;;;3.60;;
11709;SDS011;5911;51.036;6.972;2022-11-11T12:10:37;5.13;;;3.40;;
11709;SDS011;5911;51.036;6.972;2022-11-11T12:13:31;5.83;;;3.17;;
11709;SDS011;5911;51.036;6.972;2022-11-11T12:16:27;5.43;;;2.80;;
11709;SDS011;5911;51.036;6.972;2022-11-11T12:19:33;5.77;;;3.13;;
11709;SDS011;5911;51.036;6.972;2022-11-11T12:22:34;4.83;;;3.10;;
11709;SDS011;5911;51.036;6.972;2022-11-11T12:25:41;5.17;;;3.10;;
11709;SDS011;5911;51.036;6.972;2022-11-11T12:28:42;6.57;;;2.97;;
11709;SDS011;5911;51.036;6.972;2022-11-11T12:31:40;9.23;;;3.20;;
11709;SDS011;5911;51.036;6.972;2022-11-11T12:34:42;6.47;;;2.77;;
11709;SDS011;5911;51.036;6.972;2022-11-11T12:37:50;4.07;;;2.70;;
11709;SDS011;5911;51.036;6.972;2022-11-11T12:40:50;5.60;;;2.63;;
11709;SDS011;5911;51.036;6.972;2022-11-11T12:43:48;4.73;;;2.77;;
11709;SDS011;5911;51.036;6.972;2022-11-11T12:46:41;4.63;;;2.50;;
11709;SDS011;5911;51.036;6.972;2022-11-11T12:49:45;5.13;;;2.83;;
11709;SDS011;5911;51.036;6.972;2022-11-11T12:52:43;5.17;;;2.80;;
11709;SDS011;5911;51.036;6.972;2022-11-11T12:55:44;5.85;;;2.83;;
11709;SDS011;5911;51.036;6.972;2022-11-11T12:58:37;4.80;;;2.77;;
11709;SDS011;5911;51.036;6.972;2022-11-11T13:01:33;4.40;;;2.50;;
11709;SDS011;5911;51.036;6.972;2022-11-11T13:04:35;4.13;;;2.80;;
11709;SDS011;5911;51.036;6.972;2022-11-11T13:07:44;5.85;;;3.03;;
11709;SDS011;5911;51.036;6.972;2022-11-11T13:10:56;4.38;;;2.95;;
11709;SDS011;5911;51.036;6.972;2022-11-11T13:13:51;4.43;;;2.57;;
11709;SDS011;5911;51.036;6.972;2022-11-11T13:16:49;6.63;;;3.20;;
11709;SDS011;5911;51.036;6.972;2022-11-11T13:19:39;4.77;;;3.10;;
11709;SDS011;5911;51.036;6.972;2022-11-11T13:22:29;5.93;;;3.00;;
11709;SDS011;5911;51.036;6.972;2022-11-11T13:25:20;5.33;;;2.77;;
11709;SDS011;5911;51.036;6.972;2022-11-11T13:28:08;4.20;;;2.20;;
11709;SDS011;5911;51.036;6.972;2022-11-11T13:34:11;7.38;;;3.47;;
11709;SDS011;5911;51.036;6.972;2022-11-11T13:37:02;9.83;;;3.80;;
11709;SDS011;5911;51.036;6.972;2022-11-11T13:39:51;6.75;;;3.38;;
11709;SDS011;5911;51.036;6.972;2022-11-11T13:42:45;5.45;;;2.80;;
11709;SDS011;5911;51.036;6.972;2022-11-11T13:45:35;6.43;;;3.00;;
11709;SDS011;5911;51.036;6.972;2022-11-11T13:48:25;4.90;;;2.60;;
11709;SDS011;5911;51.036;6.972;2022-11-11T13:51:21;6.10;;;2.50;;
11709;SDS011;5911;51.036;6.972;2022-11-11T13:54:21;4.15;;;2.20;;
11709;SDS011;5911;51.036;6.972;2022-11-11T13:57:15;7.90;;;2.85;;
11709;SDS011;5911;51.036;6.972;2022-11-11T14:00:22;5.50;;;2.70;;
11709;SDS011;5911;51.036;6.972;2022-11-11T14:09:53;6.77;;;3.10;;
11709;SDS011;5911;51.036;6.972;2022-11-11T14:12:40;6.35;;;3.30;;
11709;SDS011;5911;51.036;6.972;2022-11-11T14:15:34;8.40;;;4.03;;
11709;SDS011;5911;51.036;6.972;2022-11-11T14:18:33;6.28;;;3.45;;
11709;SDS011;5911;51.036;6.972;2022-11-11T14:21:41;6.82;;;4.00;;
11709;SDS011;5911;51.036;6.972;2022-11-11T14:24:38;4.03;;;2.40;;
11709;SDS011;5911;51.036;6.972;2022-11-11T14:27:27;4.13;;;1.80;;
11709;SDS011;5911;51.036;6.972;2022-11-11T14:33:37;6.50;;;2.47;;
11709;SDS011;5911;51.036;6.972;2022-11-11T14:36:31;4.03;;;2.50;;
11709;SDS011;5911;51.036;6.972;2022-11-11T14:39:30;3.73;;;2.37;;
11709;SDS011;5911;51.036;6.972;2022-11-11T14:48:59;4.47;;;2.30;;
11709;SDS011;5911;51.036;6.972;2022-11-11T14:51:51;5.23;;;2.53;;
11709;SDS011;5911;51.036;6.972;2022-11-11T14:54:47;4.80;;;2.60;;
11709;SDS011;5911;51.036;6.972;2022-11-11T14:57:40;3.60;;;2.07;;
11709;SDS011;5911;51.036;6.972;2022-11-11T15:00:32;6.37;;;2.50;;
11709;SDS011;5911;51.036;6.972;2022-11-11T15:03:31;5.73;;;2.73;;
11709;SDS011;5911;51.036;6.972;2022-11-11T15:06:22;5.95;;;2.85;;
11709;SDS011;5911;51.036;6.972;2022-11-11T15:09:18;6.17;;;2.87;;
11709;SDS011;5911;51.036;6.972;2022-11-11T15:12:29;5.85;;;2.55;;
11709;SDS011;5911;51.036;6.972;2022-11-11T15:15:29;4.27;;;1.90;;
11709;SDS011;5911;51.036;6.972;2022-11-11T15:18:33;5.00;;;2.00;;
11709;SDS011;5911;51.036;6.972;2022-11-11T15:21:33;5.23;;;2.47;;
11709;SDS011;5911;51.036;6.972;2022-11-11T15:24:24;5.00;;;2.40;;
11709;SDS011;5911;51.036;6.972;2022-11-11T15:27:23;5.45;;;2.08;;
11709;SDS011;5911;51.036;6.972;2022-11-11T15:30:14;4.00;;;2.13;;
11709;SDS011;5911;51.036;6.972;2022-11-11T15:33:03;5.33;;;1.97;;
11709;SDS011;5911;51.036;6.972;2022-11-11T15:36:00;3.80;;;1.87;;
11709;SDS011;5911;51.036;6.972;2022-11-11T15:38:55;5.60;;;1.90;;
11709;SDS011;5911;51.036;6.972;2022-11-11T15:41:45;3.63;;;1.80;;
11709;SDS011;5911;51.036;6.972;2022-11-11T15:44:33;2.57;;;1.60;;
11709;SDS011;5911;51.036;6.972;2022-11-11T15:47:20;3.43;;;1.73;;
11709;SDS011;5911;51.036;6.972;2022-11-11T15:50:15;3.37;;;2.00;;
11709;SDS011;5911;51.036;6.972;2022-11-11T15:53:04;6.63;;;3.00;;
11709;SDS011;5911;51.036;6.972;2022-11-11T15:55:52;4.40;;;3.00;;
11709;SDS011;5911;51.036;6.972;2022-11-11T15:58:40;7.73;;;2.93;;
11709;SDS011;5911;51.036;6.972;2022-11-11T16:01:28;5.47;;;3.10;;
11709;SDS011;5911;51.036;6.972;2022-11-11T16:04:15;11.57;;;4.03;;
11709;SDS011;5911;51.036;6.972;2022-11-11T16:07:24;6.47;;;3.53;;
11709;SDS011;5911;51.036;6.972;2022-11-11T16:10:17;7.27;;;3.13;;
11709;SDS011;5911;51.036;6.972;2022-11-11T16:13:11;5.07;;;2.47;;
11709;SDS011;5911;51.036;6.972;2022-11-11T16:16:01;3.23;;;2.30;;
11709;SDS011;5911;51.036;6.972;2022-11-11T16:18:52;5.50;;;2.03;;
11709;SDS011;5911;51.036;6.972;2022-11-11T16:21:42;3.70;;;2.03;;
11709;SDS011;5911;51.036;6.972;2022-11-11T16:24:36;2.23;;;1.50;;
11709;SDS011;5911;51.036;6.972;2022-11-11T16:27:27;4.27;;;2.37;;
11709;SDS011;5911;51.036;6.972;2022-11-11T16:30:25;4.43;;;2.17;;
11709;SDS011;5911;51.036;6.972;2022-11-11T16:33:19;3.53;;;1.87;;
11709;SDS011;5911;51.036;6.972;2022-11-11T16:36:17;5.13;;;2.10;;
11709;SDS011;5911;51.036;6.972;2022-11-11T16:42:17;2.40;;;2.07;;
11709;SDS011;5911;51.036;6.972;2022-11-11T16:45:17;4.47;;;2.23;;
11709;SDS011;5911;51.036;6.972;2022-11-11T16:48:06;3.37;;;2.37;;
11709;SDS011;5911;51.036;6.972;2022-11-11T16:51:24;4.23;;;2.53;;
11709;SDS011;5911;51.036;6.972;2022-11-11T16:54:23;6.60;;;1.90;;
11709;SDS011;5911;51.036;6.972;2022-11-11T16:57:14;2.43;;;2.13;;
11709;SDS011;5911;51.036;6.972;2022-11-11T17:00:03;4.17;;;2.57;;
11709;SDS011;5911;51.036;6.972;2022-11-11T17:03:07;4.00;;;2.40;;
11709;SDS011;5911;51.036;6.972;2022-11-11T17:05:55;4.77;;;2.80;;
11709;SDS011;5911;51.036;6.972;2022-11-11T17:08:43;3.53;;;2.40;;
11709;SDS011;5911;51.036;6.972;2022-11-11T17:11:43;7.23;;;2.70;;
11709;SDS011;5911;51.036;6.972;2022-11-11T17:14:31;3.67;;;2.67;;
11709;SDS011;5911;51.036;6.972;2022-11-11T17:17:19;3.87;;;2.17;;
11709;SDS011;5911;51.036;6.972;2022-11-11T17:20:08;4.30;;;2.60;;
11709;SDS011;5911;51.036;6.972;2022-11-11T17:22:56;4.57;;;2.80;;
11709;SDS011;5911;51.036;6.972;2022-11-11T17:25:43;6.77;;;3.13;;
11709;SDS011;5911;51.036;6.972;2022-11-11T17:28:30;4.60;;;2.77;;
11709;SDS011;5911;51.036;6.972;2022-11-11T17:31:18;4.37;;;2.90;;
11709;SDS011;5911;51.036;6.972;2022-11-11T17:34:04;4.27;;;3.10;;
11709;SDS011;5911;51.036;6.972;2022-11-11T17:36:53;3.37;;;2.70;;
11709;SDS011;5911;51.036;6.972;2022-11-11T17:39:39;5.57;;;3.43;;
11709;SDS011;5911;51.036;6.972;2022-11-11T17:42:29;6.57;;;3.87;;
11709;SDS011;5911;51.036;6.972;2022-11-11T17:45:15;4.23;;;3.53;;
11709;SDS011;5911;51.036;6.972;2022-11-11T17:48:02;8.37;;;5.17;;
11709;SDS011;5911;51.036;6.972;2022-11-11T17:50:48;7.57;;;4.33;;